sensor_id;sensor_type;location;lat;lon;timestamp;P1;durP1;ratioP1;P2;durP2;ratioP2
10957;SDS011;5531;42.570;23.676;2023-04-24T00:01:30;6.10;;;3.67;;
10957;SDS011;5531;42.570;23.676;2023-04-24T00:04:02;5.65;;;3.78;;
10957;SDS011;5531;42.570;23.676;2023-04-24T00:06:32;6.20;;;3.30;;
10957;SDS011;5531;42.570;23.676;2023-04-24T00:09:02;5.07;;;3.72;;
10957;SDS011;5531;42.570;23.676;2023-04-24T00:11:31;3.50;;;3.20;;
10957;SDS011;5531;42.570;23.676;2023-04-24T00:14:00;4.95;;;3.38;;
10957;SDS011;5531;42.570;23.676;2023-04-24T00:16:30;5.40;;;2.78;;
10957;SDS011;5531;42.570;23.676;2023-04-24T00:18:59;5.75;;;3.03;;
10957;SDS011;5531;42.570;23.676;2023-04-24T00:21:31;4.78;;;3.17;;
10957;SDS011;5531;42.570;23.676;2023-04-24T00:24:00;5.03;;;3.50;;
10957;SDS011;5531;42.570;23.676;2023-04-24T00:26:29;5.85;;;4.00;;
10957;SDS011;5531;42.570;23.676;2023-04-24T00:28:58;4.53;;;3.42;;
10957;SDS011;5531;42.570;23.676;2023-04-24T00:31:27;5.00;;;3.80;;
10957;SDS011;5531;42.570;23.676;2023-04-24T00:33:56;4.53;;;4.13;;
10957;SDS011;5531;42.570;23.676;2023-04-24T00:36:28;4.70;;;3.92;;
10957;SDS011;5531;42.570;23.676;2023-04-24T00:38:57;6.20;;;3.92;;
10957;SDS011;5531;42.570;23.676;2023-04-24T00:41:27;6.63;;;4.28;;
10957;SDS011;5531;42.570;23.676;2023-04-24T00:46:32;6.10;;;3.88;;
10957;SDS011;5531;42.570;23.676;2023-04-24T00:49:01;4.63;;;3.60;;
10957;SDS011;5531;42.570;23.676;2023-04-24T00:51:33;4.30;;;3.63;;
10957;SDS011;5531;42.570;23.676;2023-04-24T00:54:03;3.97;;;3.58;;
10957;SDS011;5531;42.570;23.676;2023-04-24T00:56:31;5.93;;;3.97;;
10957;SDS011;5531;42.570;23.676;2023-04-24T00:59:01;4.97;;;3.90;;
10957;SDS011;5531;42.570;23.676;2023-04-24T01:01:30;4.80;;;3.65;;
10957;SDS011;5531;42.570;23.676;2023-04-24T01:03:59;5.90;;;3.85;;
10957;SDS011;5531;42.570;23.676;2023-04-24T01:06:29;6.88;;;4.10;;
10957;SDS011;5531;42.570;23.676;2023-04-24T01:09:01;4.93;;;4.10;;
10957;SDS011;5531;42.570;23.676;2023-04-24T01:11:30;5.32;;;3.88;;
10957;SDS011;5531;42.570;23.676;2023-04-24T01:13:59;5.40;;;4.05;;
10957;SDS011;5531;42.570;23.676;2023-04-24T01:16:29;5.95;;;4.22;;
10957;SDS011;5531;42.570;23.676;2023-04-24T01:18:58;5.05;;;4.55;;
10957;SDS011;5531;42.570;23.676;2023-04-24T01:21:27;4.78;;;4.28;;
10957;SDS011;5531;42.570;23.676;2023-04-24T01:24:01;4.72;;;4.13;;
10957;SDS011;5531;42.570;23.676;2023-04-24T01:26:30;6.55;;;4.28;;
10957;SDS011;5531;42.570;23.676;2023-04-24T01:28:59;5.20;;;4.20;;
10957;SDS011;5531;42.570;23.676;2023-04-24T01:31:28;5.25;;;3.92;;
10957;SDS011;5531;42.570;23.676;2023-04-24T01:33:58;5.00;;;4.30;;
10957;SDS011;5531;42.570;23.676;2023-04-24T01:36:27;4.40;;;4.00;;
10957;SDS011;5531;42.570;23.676;2023-04-24T01:39:01;5.03;;;4.05;;
10957;SDS011;5531;42.570;23.676;2023-04-24T01:41:30;6.80;;;3.95;;
10957;SDS011;5531;42.570;23.676;2023-04-24T01:44:00;6.10;;;4.20;;
10957;SDS011;5531;42.570;23.676;2023-04-24T01:46:30;7.15;;;3.88;;
10957;SDS011;5531;42.570;23.676;2023-04-24T01:49:00;5.65;;;3.60;;
10957;SDS011;5531;42.570;23.676;2023-04-24T01:51:29;6.13;;;4.40;;
10957;SDS011;5531;42.570;23.676;2023-04-24T01:54:01;4.95;;;3.92;;
10957;SDS011;5531;42.570;23.676;2023-04-24T01:56:30;7.28;;;4.10;;
10957;SDS011;5531;42.570;23.676;2023-04-24T01:59:02;5.95;;;4.18;;
10957;SDS011;5531;42.570;23.676;2023-04-24T02:01:33;6.22;;;4.10;;
10957;SDS011;5531;42.570;23.676;2023-04-24T02:04:04;4.43;;;3.92;;
10957;SDS011;5531;42.570;23.676;2023-04-24T02:06:34;5.47;;;3.78;;
10957;SDS011;5531;42.570;23.676;2023-04-24T02:09:05;4.78;;;4.05;;
10957;SDS011;5531;42.570;23.676;2023-04-24T02:11:36;4.93;;;3.97;;
10957;SDS011;5531;42.570;23.676;2023-04-24T02:14:05;4.55;;;4.15;;
10957;SDS011;5531;42.570;23.676;2023-04-24T02:16:34;4.50;;;4.10;;
10957;SDS011;5531;42.570;23.676;2023-04-24T02:19:03;4.22;;;3.80;;
10957;SDS011;5531;42.570;23.676;2023-04-24T02:21:32;5.97;;;4.43;;
10957;SDS011;5531;42.570;23.676;2023-04-24T02:24:01;4.85;;;4.35;;
10957;SDS011;5531;42.570;23.676;2023-04-24T02:26:33;7.18;;;4.35;;
10957;SDS011;5531;42.570;23.676;2023-04-24T02:29:02;4.63;;;4.22;;
10957;SDS011;5531;42.570;23.676;2023-04-24T02:31:30;4.20;;;3.80;;
10957;SDS011;5531;42.570;23.676;2023-04-24T02:33:59;6.22;;;4.30;;
10957;SDS011;5531;42.570;23.676;2023-04-24T02:36:28;4.97;;;4.28;;
10957;SDS011;5531;42.570;23.676;2023-04-24T02:38:57;5.05;;;4.22;;
10957;SDS011;5531;42.570;23.676;2023-04-24T02:41:26;4.75;;;4.28;;
10957;SDS011;5531;42.570;23.676;2023-04-24T02:44:00;4.68;;;4.13;;
10957;SDS011;5531;42.570;23.676;2023-04-24T02:46:29;7.88;;;4.82;;
10957;SDS011;5531;42.570;23.676;2023-04-24T02:48:58;4.78;;;4.18;;
10957;SDS011;5531;42.570;23.676;2023-04-24T02:51:27;5.43;;;4.82;;
10957;SDS011;5531;42.570;23.676;2023-04-24T02:53:56;6.78;;;4.60;;
10957;SDS011;5531;42.570;23.676;2023-04-24T02:56:25;4.72;;;4.18;;
10957;SDS011;5531;42.570;23.676;2023-04-24T02:58:54;4.65;;;4.03;;
10957;SDS011;5531;42.570;23.676;2023-04-24T03:01:26;5.32;;;4.50;;
10957;SDS011;5531;42.570;23.676;2023-04-24T03:03:55;5.75;;;4.18;;
10957;SDS011;5531;42.570;23.676;2023-04-24T03:06:24;5.32;;;4.35;;
10957;SDS011;5531;42.570;23.676;2023-04-24T03:08:53;6.97;;;4.60;;
10957;SDS011;5531;42.570;23.676;2023-04-24T03:11:22;6.72;;;4.47;;
10957;SDS011;5531;42.570;23.676;2023-04-24T03:13:51;7.13;;;5.00;;
10957;SDS011;5531;42.570;23.676;2023-04-24T03:16:26;7.15;;;5.70;;
10957;SDS011;5531;42.570;23.676;2023-04-24T03:18:55;6.93;;;5.50;;
10957;SDS011;5531;42.570;23.676;2023-04-24T03:21:24;8.52;;;5.45;;
10957;SDS011;5531;42.570;23.676;2023-04-24T03:23:54;5.75;;;5.15;;
10957;SDS011;5531;42.570;23.676;2023-04-24T03:26:23;6.03;;;5.18;;
10957;SDS011;5531;42.570;23.676;2023-04-24T03:28:52;8.40;;;5.75;;
10957;SDS011;5531;42.570;23.676;2023-04-24T03:31:21;5.32;;;4.78;;
10957;SDS011;5531;42.570;23.676;2023-04-24T03:33:53;8.18;;;5.07;;
10957;SDS011;5531;42.570;23.676;2023-04-24T03:36:22;6.25;;;5.15;;
10957;SDS011;5531;42.570;23.676;2023-04-24T03:38:51;7.40;;;4.90;;
10957;SDS011;5531;42.570;23.676;2023-04-24T03:41:20;8.70;;;5.20;;
10957;SDS011;5531;42.570;23.676;2023-04-24T03:43:50;8.18;;;4.68;;
10957;SDS011;5531;42.570;23.676;2023-04-24T03:46:19;6.93;;;5.07;;
10957;SDS011;5531;42.570;23.676;2023-04-24T03:48:48;5.47;;;4.93;;
10957;SDS011;5531;42.570;23.676;2023-04-24T03:51:19;7.72;;;4.80;;
10957;SDS011;5531;42.570;23.676;2023-04-24T03:53:48;7.43;;;4.85;;
10957;SDS011;5531;42.570;23.676;2023-04-24T03:56:17;5.47;;;4.47;;
10957;SDS011;5531;42.570;23.676;2023-04-24T03:58:46;6.68;;;4.90;;
10957;SDS011;5531;42.570;23.676;2023-04-24T04:01:15;6.55;;;4.60;;
10957;SDS011;5531;42.570;23.676;2023-04-24T04:03:46;5.80;;;4.75;;
10957;SDS011;5531;42.570;23.676;2023-04-24T04:06:15;4.90;;;4.43;;
10957;SDS011;5531;42.570;23.676;2023-04-24T04:08:47;6.88;;;4.65;;
10957;SDS011;5531;42.570;23.676;2023-04-24T04:11:16;6.05;;;4.57;;
10957;SDS011;5531;42.570;23.676;2023-04-24T04:13:45;5.25;;;4.38;;
10957;SDS011;5531;42.570;23.676;2023-04-24T04:16:15;6.32;;;4.28;;
10957;SDS011;5531;42.570;23.676;2023-04-24T04:18:44;5.32;;;4.35;;
10957;SDS011;5531;42.570;23.676;2023-04-24T04:21:13;6.47;;;4.25;;
10957;SDS011;5531;42.570;23.676;2023-04-24T04:23:42;6.13;;;4.47;;
10957;SDS011;5531;42.570;23.676;2023-04-24T04:26:14;6.35;;;4.72;;
10957;SDS011;5531;42.570;23.676;2023-04-24T04:28:44;4.90;;;4.28;;
10957;SDS011;5531;42.570;23.676;2023-04-24T04:31:14;7.07;;;4.05;;
10957;SDS011;5531;42.570;23.676;2023-04-24T04:33:43;5.55;;;4.47;;
10957;SDS011;5531;42.570;23.676;2023-04-24T04:36:12;6.60;;;4.18;;
10957;SDS011;5531;42.570;23.676;2023-04-24T04:38:42;6.03;;;4.20;;
10957;SDS011;5531;42.570;23.676;2023-04-24T04:41:14;5.40;;;4.35;;
10957;SDS011;5531;42.570;23.676;2023-04-24T04:43:43;5.15;;;4.13;;
10957;SDS011;5531;42.570;23.676;2023-04-24T04:46:12;6.00;;;4.30;;
10957;SDS011;5531;42.570;23.676;2023-04-24T04:48:42;5.03;;;4.25;;
10957;SDS011;5531;42.570;23.676;2023-04-24T04:51:11;4.57;;;4.03;;
10957;SDS011;5531;42.570;23.676;2023-04-24T04:53:40;4.20;;;3.80;;
10957;SDS011;5531;42.570;23.676;2023-04-24T04:56:09;8.77;;;4.60;;
10957;SDS011;5531;42.570;23.676;2023-04-24T04:58:40;8.05;;;4.45;;
10957;SDS011;5531;42.570;23.676;2023-04-24T05:01:09;5.25;;;4.07;;
10957;SDS011;5531;42.570;23.676;2023-04-24T05:03:38;6.13;;;4.07;;
10957;SDS011;5531;42.570;23.676;2023-04-24T05:06:07;4.63;;;4.22;;
10957;SDS011;5531;42.570;23.676;2023-04-24T05:08:37;4.32;;;3.80;;
10957;SDS011;5531;42.570;23.676;2023-04-24T05:11:06;6.65;;;4.32;;
10957;SDS011;5531;42.570;23.676;2023-04-24T05:13:35;4.68;;;4.13;;
10957;SDS011;5531;42.570;23.676;2023-04-24T05:16:07;4.22;;;3.63;;
10957;SDS011;5531;42.570;23.676;2023-04-24T05:18:36;7.15;;;3.72;;
10957;SDS011;5531;42.570;23.676;2023-04-24T05:21:05;5.53;;;3.80;;
10957;SDS011;5531;42.570;23.676;2023-04-24T05:23:34;6.32;;;3.53;;
10957;SDS011;5531;42.570;23.676;2023-04-24T05:26:03;4.15;;;3.75;;
10957;SDS011;5531;42.570;23.676;2023-04-24T05:28:32;4.45;;;3.47;;
10957;SDS011;5531;42.570;23.676;2023-04-24T05:31:03;6.28;;;3.28;;
10957;SDS011;5531;42.570;23.676;2023-04-24T05:33:34;4.63;;;3.30;;
10957;SDS011;5531;42.570;23.676;2023-04-24T05:36:04;4.45;;;3.45;;
10957;SDS011;5531;42.570;23.676;2023-04-24T05:38:34;4.90;;;3.75;;
10957;SDS011;5531;42.570;23.676;2023-04-24T05:41:03;5.75;;;3.55;;
10957;SDS011;5531;42.570;23.676;2023-04-24T05:43:32;4.18;;;3.42;;
10957;SDS011;5531;42.570;23.676;2023-04-24T05:46:01;4.32;;;3.40;;
10957;SDS011;5531;42.570;23.676;2023-04-24T05:48:30;5.93;;;3.63;;
10957;SDS011;5531;42.570;23.676;2023-04-24T05:51:01;4.10;;;3.63;;
10957;SDS011;5531;42.570;23.676;2023-04-24T05:53:30;4.35;;;3.50;;
10957;SDS011;5531;42.570;23.676;2023-04-24T05:55:59;5.55;;;3.95;;
10957;SDS011;5531;42.570;23.676;2023-04-24T05:58:28;5.65;;;3.53;;
10957;SDS011;5531;42.570;23.676;2023-04-24T06:00:57;5.53;;;3.97;;
10957;SDS011;5531;42.570;23.676;2023-04-24T06:03:27;3.53;;;3.17;;
10957;SDS011;5531;42.570;23.676;2023-04-24T06:05:56;4.60;;;3.72;;
10957;SDS011;5531;42.570;23.676;2023-04-24T06:08:28;4.47;;;3.78;;
10957;SDS011;5531;42.570;23.676;2023-04-24T06:10:57;7.28;;;3.85;;
10957;SDS011;5531;42.570;23.676;2023-04-24T06:13:26;4.57;;;3.53;;
10957;SDS011;5531;42.570;23.676;2023-04-24T06:16:01;4.57;;;3.65;;
10957;SDS011;5531;42.570;23.676;2023-04-24T06:18:31;4.95;;;3.60;;
10957;SDS011;5531;42.570;23.676;2023-04-24T06:21:00;5.93;;;3.80;;
10957;SDS011;5531;42.570;23.676;2023-04-24T06:23:32;4.93;;;3.47;;
10957;SDS011;5531;42.570;23.676;2023-04-24T06:26:01;6.63;;;3.60;;
10957;SDS011;5531;42.570;23.676;2023-04-24T06:28:30;3.88;;;3.38;;
10957;SDS011;5531;42.570;23.676;2023-04-24T06:31:00;3.70;;;3.28;;
10957;SDS011;5531;42.570;23.676;2023-04-24T06:33:29;4.70;;;3.25;;
10957;SDS011;5531;42.570;23.676;2023-04-24T06:35:58;7.47;;;3.75;;
10957;SDS011;5531;42.570;23.676;2023-04-24T06:38:27;5.40;;;3.58;;
10957;SDS011;5531;42.570;23.676;2023-04-24T06:41:01;3.92;;;3.50;;
10957;SDS011;5531;42.570;23.676;2023-04-24T06:43:30;3.78;;;3.35;;
10957;SDS011;5531;42.570;23.676;2023-04-24T06:46:00;3.65;;;3.35;;
10957;SDS011;5531;42.570;23.676;2023-04-24T06:48:29;4.60;;;3.45;;
10957;SDS011;5531;42.570;23.676;2023-04-24T06:50:58;4.15;;;3.35;;
10957;SDS011;5531;42.570;23.676;2023-04-24T06:53:27;4.28;;;3.20;;
10957;SDS011;5531;42.570;23.676;2023-04-24T06:55:55;4.68;;;3.35;;
10957;SDS011;5531;42.570;23.676;2023-04-24T06:58:27;6.10;;;3.83;;
10957;SDS011;5531;42.570;23.676;2023-04-24T07:00:58;4.13;;;3.42;;
10957;SDS011;5531;42.570;23.676;2023-04-24T07:03:27;4.65;;;3.28;;
10957;SDS011;5531;42.570;23.676;2023-04-24T07:05:56;4.70;;;3.33;;
10957;SDS011;5531;42.570;23.676;2023-04-24T07:08:25;4.88;;;3.65;;
10957;SDS011;5531;42.570;23.676;2023-04-24T07:10:55;4.22;;;3.60;;
10957;SDS011;5531;42.570;23.676;2023-04-24T07:13:27;5.57;;;3.45;;
10957;SDS011;5531;42.570;23.676;2023-04-24T07:15:56;5.00;;;3.00;;
10957;SDS011;5531;42.570;23.676;2023-04-24T07:18:25;4.28;;;3.10;;
10957;SDS011;5531;42.570;23.676;2023-04-24T07:20:55;5.00;;;3.50;;
10957;SDS011;5531;42.570;23.676;2023-04-24T07:23:23;3.72;;;3.42;;
10957;SDS011;5531;42.570;23.676;2023-04-24T07:25:53;3.90;;;3.38;;
10957;SDS011;5531;42.570;23.676;2023-04-24T07:28:22;3.83;;;3.35;;
10957;SDS011;5531;42.570;23.676;2023-04-24T07:30:53;5.70;;;3.90;;
10957;SDS011;5531;42.570;23.676;2023-04-24T07:33:22;4.10;;;3.70;;
10957;SDS011;5531;42.570;23.676;2023-04-24T07:35:51;4.43;;;3.72;;
10957;SDS011;5531;42.570;23.676;2023-04-24T07:38:20;4.60;;;3.80;;
10957;SDS011;5531;42.570;23.676;2023-04-24T07:40:51;5.53;;;4.20;;
10957;SDS011;5531;42.570;23.676;2023-04-24T07:43:20;5.72;;;4.38;;
10957;SDS011;5531;42.570;23.676;2023-04-24T07:45:49;5.25;;;4.03;;
10957;SDS011;5531;42.570;23.676;2023-04-24T07:48:22;6.47;;;3.60;;
10957;SDS011;5531;42.570;23.676;2023-04-24T07:50:51;5.78;;;4.10;;
10957;SDS011;5531;42.570;23.676;2023-04-24T07:53:20;4.35;;;3.95;;
10957;SDS011;5531;42.570;23.676;2023-04-24T07:55:49;4.03;;;3.65;;
10957;SDS011;5531;42.570;23.676;2023-04-24T07:58:18;5.13;;;3.90;;
10957;SDS011;5531;42.570;23.676;2023-04-24T08:00:47;5.07;;;3.47;;
10957;SDS011;5531;42.570;23.676;2023-04-24T08:03:19;4.93;;;3.92;;
10957;SDS011;5531;42.570;23.676;2023-04-24T08:05:48;4.85;;;4.43;;
10957;SDS011;5531;42.570;23.676;2023-04-24T08:08:20;4.40;;;4.00;;
10957;SDS011;5531;42.570;23.676;2023-04-24T08:10:52;5.18;;;4.03;;
10957;SDS011;5531;42.570;23.676;2023-04-24T08:13:21;5.78;;;4.05;;
10957;SDS011;5531;42.570;23.676;2023-04-24T08:15:50;5.05;;;3.75;;
10957;SDS011;5531;42.570;23.676;2023-04-24T08:18:22;4.35;;;3.95;;
10957;SDS011;5531;42.570;23.676;2023-04-24T08:20:51;5.72;;;4.60;;
10957;SDS011;5531;42.570;23.676;2023-04-24T08:23:20;4.30;;;3.90;;
10957;SDS011;5531;42.570;23.676;2023-04-24T08:25:49;4.65;;;4.20;;
10957;SDS011;5531;42.570;23.676;2023-04-24T08:28:18;5.55;;;3.88;;
10957;SDS011;5531;42.570;23.676;2023-04-24T08:30:47;15.15;;;8.90;;
10957;SDS011;5531;42.570;23.676;2023-04-24T08:33:22;5.07;;;4.40;;
10957;SDS011;5531;42.570;23.676;2023-04-24T08:35:52;4.30;;;3.80;;
10957;SDS011;5531;42.570;23.676;2023-04-24T08:38:21;6.07;;;4.78;;
10957;SDS011;5531;42.570;23.676;2023-04-24T08:40:50;13.80;;;7.40;;
10957;SDS011;5531;42.570;23.676;2023-04-24T08:43:20;5.43;;;4.00;;
10957;SDS011;5531;42.570;23.676;2023-04-24T08:45:50;4.63;;;4.20;;
10957;SDS011;5531;42.570;23.676;2023-04-24T08:48:22;6.03;;;5.15;;
10957;SDS011;5531;42.570;23.676;2023-04-24T08:50:51;5.28;;;3.97;;
10957;SDS011;5531;42.570;23.676;2023-04-24T08:53:20;5.22;;;4.55;;
10957;SDS011;5531;42.570;23.676;2023-04-24T08:55:49;4.57;;;3.80;;
10957;SDS011;5531;42.570;23.676;2023-04-24T08:58:19;5.40;;;3.50;;
10957;SDS011;5531;42.570;23.676;2023-04-24T09:00:48;4.43;;;4.03;;
10957;SDS011;5531;42.570;23.676;2023-04-24T09:03:17;5.95;;;3.67;;
10957;SDS011;5531;42.570;23.676;2023-04-24T09:05:49;4.55;;;3.90;;
10957;SDS011;5531;42.570;23.676;2023-04-24T09:08:20;4.40;;;4.00;;
10957;SDS011;5531;42.570;23.676;2023-04-24T09:10:52;4.20;;;3.80;;
10957;SDS011;5531;42.570;23.676;2023-04-24T09:13:23;4.63;;;4.00;;
10957;SDS011;5531;42.570;23.676;2023-04-24T09:15:53;5.43;;;3.83;;
10957;SDS011;5531;42.570;23.676;2023-04-24T09:18:22;4.35;;;3.83;;
10957;SDS011;5531;42.570;23.676;2023-04-24T09:21:01;3.85;;;3.55;;
10957;SDS011;5531;42.570;23.676;2023-04-24T09:23:31;6.07;;;4.10;;
10957;SDS011;5531;42.570;23.676;2023-04-24T09:26:01;5.65;;;4.55;;
10957;SDS011;5531;42.570;23.676;2023-04-24T09:28:35;7.20;;;4.70;;
10957;SDS011;5531;42.570;23.676;2023-04-24T09:31:06;5.45;;;3.80;;
10957;SDS011;5531;42.570;23.676;2023-04-24T09:33:36;3.55;;;3.25;;
10957;SDS011;5531;42.570;23.676;2023-04-24T09:36:08;5.35;;;3.75;;
10957;SDS011;5531;42.570;23.676;2023-04-24T09:38:38;4.70;;;3.75;;
10957;SDS011;5531;42.570;23.676;2023-04-24T09:41:07;4.45;;;4.00;;
10957;SDS011;5531;42.570;23.676;2023-04-24T09:43:41;4.43;;;3.75;;
10957;SDS011;5531;42.570;23.676;2023-04-24T09:46:10;5.28;;;3.97;;
10957;SDS011;5531;42.570;23.676;2023-04-24T09:48:39;4.28;;;3.88;;
10957;SDS011;5531;42.570;23.676;2023-04-24T09:51:11;3.90;;;3.38;;
10957;SDS011;5531;42.570;23.676;2023-04-24T09:53:45;3.90;;;3.47;;
10957;SDS011;5531;42.570;23.676;2023-04-24T09:56:15;3.85;;;3.45;;
10957;SDS011;5531;42.570;23.676;2023-04-24T09:58:45;6.03;;;3.40;;
10957;SDS011;5531;42.570;23.676;2023-04-24T10:01:16;3.90;;;3.50;;
10957;SDS011;5531;42.570;23.676;2023-04-24T10:03:57;3.58;;;3.28;;
10957;SDS011;5531;42.570;23.676;2023-04-24T10:06:32;3.58;;;3.22;;
10957;SDS011;5531;42.570;23.676;2023-04-24T10:09:02;4.45;;;3.30;;
10957;SDS011;5531;42.570;23.676;2023-04-24T10:11:31;4.15;;;3.45;;
10957;SDS011;5531;42.570;23.676;2023-04-24T10:14:00;3.80;;;3.38;;
10957;SDS011;5531;42.570;23.676;2023-04-24T10:16:30;4.07;;;3.42;;
10957;SDS011;5531;42.570;23.676;2023-04-24T10:19:00;3.58;;;3.22;;
10957;SDS011;5531;42.570;23.676;2023-04-24T10:21:34;4.07;;;3.70;;
10957;SDS011;5531;42.570;23.676;2023-04-24T10:24:07;3.50;;;3.20;;
10957;SDS011;5531;42.570;23.676;2023-04-24T10:26:36;3.85;;;3.45;;
10957;SDS011;5531;42.570;23.676;2023-04-24T10:29:06;3.83;;;3.08;;
10957;SDS011;5531;42.570;23.676;2023-04-24T10:31:38;4.10;;;3.70;;
10957;SDS011;5531;42.570;23.676;2023-04-24T10:34:10;3.55;;;3.25;;
10957;SDS011;5531;42.570;23.676;2023-04-24T10:36:43;4.43;;;3.28;;
10957;SDS011;5531;42.570;23.676;2023-04-24T10:39:16;3.63;;;3.28;;
10957;SDS011;5531;42.570;23.676;2023-04-24T10:41:48;3.50;;;3.20;;
10957;SDS011;5531;42.570;23.676;2023-04-24T10:44:18;3.83;;;3.38;;
10957;SDS011;5531;42.570;23.676;2023-04-24T10:46:52;3.55;;;3.25;;
10957;SDS011;5531;42.570;23.676;2023-04-24T10:49:27;4.10;;;3.30;;
10957;SDS011;5531;42.570;23.676;2023-04-24T10:52:03;3.72;;;3.10;;
10957;SDS011;5531;42.570;23.676;2023-04-24T10:54:36;3.63;;;3.03;;
10957;SDS011;5531;42.570;23.676;2023-04-24T10:57:26;3.70;;;3.40;;
10957;SDS011;5531;42.570;23.676;2023-04-24T11:00:12;4.70;;;3.45;;
10957;SDS011;5531;42.570;23.676;2023-04-24T11:02:45;3.80;;;3.30;;
10957;SDS011;5531;42.570;23.676;2023-04-24T11:05:18;4.30;;;3.30;;
10957;SDS011;5531;42.570;23.676;2023-04-24T11:10:54;3.97;;;3.60;;
10957;SDS011;5531;42.570;23.676;2023-04-24T11:13:25;3.20;;;2.90;;
10957;SDS011;5531;42.570;23.676;2023-04-24T11:18:43;3.30;;;3.00;;
10957;SDS011;5531;42.570;23.676;2023-04-24T11:21:16;4.07;;;3.40;;
10957;SDS011;5531;42.570;23.676;2023-04-24T11:23:48;3.95;;;3.20;;
10957;SDS011;5531;42.570;23.676;2023-04-24T11:26:17;3.83;;;3.13;;
10957;SDS011;5531;42.570;23.676;2023-04-24T11:28:50;3.38;;;3.08;;
10957;SDS011;5531;42.570;23.676;2023-04-24T11:31:34;3.20;;;2.90;;
10957;SDS011;5531;42.570;23.676;2023-04-24T11:34:08;3.97;;;3.10;;
10957;SDS011;5531;42.570;23.676;2023-04-24T11:36:38;3.53;;;3.22;;
10957;SDS011;5531;42.570;23.676;2023-04-24T11:39:10;3.40;;;3.10;;
10957;SDS011;5531;42.570;23.676;2023-04-24T11:41:40;4.28;;;3.45;;
10957;SDS011;5531;42.570;23.676;2023-04-24T11:44:09;4.20;;;3.22;;
10957;SDS011;5531;42.570;23.676;2023-04-24T11:46:38;3.22;;;2.92;;
10957;SDS011;5531;42.570;23.676;2023-04-24T11:49:07;3.25;;;2.85;;
10957;SDS011;5531;42.570;23.676;2023-04-24T11:51:36;4.15;;;3.17;;
10957;SDS011;5531;42.570;23.676;2023-04-24T11:54:07;3.67;;;3.20;;
10957;SDS011;5531;42.570;23.676;2023-04-24T11:56:39;3.10;;;2.90;;
10957;SDS011;5531;42.570;23.676;2023-04-24T11:59:12;3.30;;;2.70;;
10957;SDS011;5531;42.570;23.676;2023-04-24T12:01:45;3.53;;;3.17;;
10957;SDS011;5531;42.570;23.676;2023-04-24T12:04:14;3.50;;;3.20;;
10957;SDS011;5531;42.570;23.676;2023-04-24T12:09:32;3.35;;;3.03;;
10957;SDS011;5531;42.570;23.676;2023-04-24T12:12:10;6.00;;;3.30;;
10957;SDS011;5531;42.570;23.676;2023-04-24T12:14:43;3.42;;;2.90;;
10957;SDS011;5531;42.570;23.676;2023-04-24T12:17:23;3.97;;;3.58;;
10957;SDS011;5531;42.570;23.676;2023-04-24T12:19:56;7.38;;;4.80;;
10957;SDS011;5531;42.570;23.676;2023-04-24T12:22:27;10.82;;;4.18;;
10957;SDS011;5531;42.570;23.676;2023-04-24T12:25:06;4.72;;;3.33;;
10957;SDS011;5531;42.570;23.676;2023-04-24T12:27:40;3.78;;;3.47;;
10957;SDS011;5531;42.570;23.676;2023-04-24T12:30:10;4.22;;;3.83;;
10957;SDS011;5531;42.570;23.676;2023-04-24T12:32:42;4.30;;;4.00;;
10957;SDS011;5531;42.570;23.676;2023-04-24T12:35:11;3.10;;;2.80;;
10957;SDS011;5531;42.570;23.676;2023-04-24T12:37:42;5.95;;;4.68;;
10957;SDS011;5531;42.570;23.676;2023-04-24T12:40:14;5.20;;;4.65;;
10957;SDS011;5531;42.570;23.676;2023-04-24T12:42:43;4.45;;;4.00;;
10957;SDS011;5531;42.570;23.676;2023-04-24T12:45:15;5.18;;;4.65;;
10957;SDS011;5531;42.570;23.676;2023-04-24T12:47:49;4.93;;;4.30;;
10957;SDS011;5531;42.570;23.676;2023-04-24T12:50:20;5.07;;;3.75;;
10957;SDS011;5531;42.570;23.676;2023-04-24T12:53:01;4.25;;;3.85;;
10957;SDS011;5531;42.570;23.676;2023-04-24T12:55:32;5.13;;;4.47;;
10957;SDS011;5531;42.570;23.676;2023-04-24T12:58:01;4.82;;;4.43;;
10957;SDS011;5531;42.570;23.676;2023-04-24T13:00:31;4.43;;;4.03;;
10957;SDS011;5531;42.570;23.676;2023-04-24T13:03:01;6.55;;;4.50;;
10957;SDS011;5531;42.570;23.676;2023-04-24T13:05:30;5.07;;;4.68;;
10957;SDS011;5531;42.570;23.676;2023-04-24T13:08:00;4.68;;;4.28;;
10957;SDS011;5531;42.570;23.676;2023-04-24T13:10:29;3.90;;;3.60;;
10957;SDS011;5531;42.570;23.676;2023-04-24T13:13:01;3.92;;;3.58;;
10957;SDS011;5531;42.570;23.676;2023-04-24T13:15:30;3.50;;;3.10;;
10957;SDS011;5531;42.570;23.676;2023-04-24T13:17:59;3.75;;;3.42;;
10957;SDS011;5531;42.570;23.676;2023-04-24T13:20:29;3.40;;;3.10;;
10957;SDS011;5531;42.570;23.676;2023-04-24T13:22:57;3.60;;;3.30;;
10957;SDS011;5531;42.570;23.676;2023-04-24T13:25:26;4.00;;;3.60;;
10957;SDS011;5531;42.570;23.676;2023-04-24T13:27:56;5.22;;;4.38;;
10957;SDS011;5531;42.570;23.676;2023-04-24T13:30:27;4.22;;;3.83;;
10957;SDS011;5531;42.570;23.676;2023-04-24T13:32:57;5.07;;;4.40;;
10957;SDS011;5531;42.570;23.676;2023-04-24T13:35:26;4.43;;;4.03;;
10957;SDS011;5531;42.570;23.676;2023-04-24T13:39:54;5.88;;;4.85;;
10957;SDS011;5531;42.570;23.676;2023-04-24T13:42:23;5.15;;;4.65;;
10957;SDS011;5531;42.570;23.676;2023-04-24T13:44:52;4.40;;;4.00;;
10957;SDS011;5531;42.570;23.676;2023-04-24T13:47:22;4.40;;;3.90;;
10957;SDS011;5531;42.570;23.676;2023-04-24T13:49:51;4.70;;;4.28;;
10957;SDS011;5531;42.570;23.676;2023-04-24T13:52:20;4.78;;;4.30;;
10957;SDS011;5531;42.570;23.676;2023-04-24T13:54:48;4.43;;;4.03;;
10957;SDS011;5531;42.570;23.676;2023-04-24T13:57:20;5.60;;;4.18;;
10957;SDS011;5531;42.570;23.676;2023-04-24T13:59:49;4.90;;;4.50;;
10957;SDS011;5531;42.570;23.676;2023-04-24T14:02:19;6.00;;;4.70;;
10957;SDS011;5531;42.570;23.676;2023-04-24T14:04:48;5.10;;;4.40;;
10957;SDS011;5531;42.570;23.676;2023-04-24T14:07:17;5.40;;;4.90;;
10957;SDS011;5531;42.570;23.676;2023-04-24T14:09:46;4.93;;;4.20;;
10957;SDS011;5531;42.570;23.676;2023-04-24T14:12:15;4.80;;;4.40;;
10957;SDS011;5531;42.570;23.676;2023-04-24T14:14:48;4.45;;;4.05;;
10957;SDS011;5531;42.570;23.676;2023-04-24T14:17:17;4.20;;;3.80;;
10957;SDS011;5531;42.570;23.676;2023-04-24T14:19:46;6.05;;;4.07;;
10957;SDS011;5531;42.570;23.676;2023-04-24T14:22:15;6.53;;;4.90;;
10957;SDS011;5531;42.570;23.676;2023-04-24T14:24:44;5.15;;;4.40;;
10957;SDS011;5531;42.570;23.676;2023-04-24T14:27:13;5.40;;;3.80;;
10957;SDS011;5531;42.570;23.676;2023-04-24T14:29:42;5.53;;;4.13;;
10957;SDS011;5531;42.570;23.676;2023-04-24T14:32:14;4.40;;;4.00;;
10957;SDS011;5531;42.570;23.676;2023-04-24T14:34:43;4.03;;;3.72;;
10957;SDS011;5531;42.570;23.676;2023-04-24T14:37:12;4.97;;;4.53;;
10957;SDS011;5531;42.570;23.676;2023-04-24T14:39:41;4.93;;;4.50;;
10957;SDS011;5531;42.570;23.676;2023-04-24T14:42:10;6.80;;;5.53;;
10957;SDS011;5531;42.570;23.676;2023-04-24T14:44:39;5.57;;;4.95;;
10957;SDS011;5531;42.570;23.676;2023-04-24T14:47:08;5.97;;;5.47;;
10957;SDS011;5531;42.570;23.676;2023-04-24T14:49:40;5.55;;;5.05;;
10957;SDS011;5531;42.570;23.676;2023-04-24T14:52:09;7.60;;;6.05;;
10957;SDS011;5531;42.570;23.676;2023-04-24T14:54:39;7.65;;;6.03;;
10957;SDS011;5531;42.570;23.676;2023-04-24T14:57:08;7.10;;;6.40;;
10957;SDS011;5531;42.570;23.676;2023-04-24T14:59:37;7.38;;;6.53;;
10957;SDS011;5531;42.570;23.676;2023-04-24T15:02:07;7.88;;;7.07;;
10957;SDS011;5531;42.570;23.676;2023-04-24T15:04:36;8.30;;;7.35;;
10957;SDS011;5531;42.570;23.676;2023-04-24T15:07:07;7.90;;;7.07;;
10957;SDS011;5531;42.570;23.676;2023-04-24T15:09:36;8.48;;;7.57;;
10957;SDS011;5531;42.570;23.676;2023-04-24T15:12:05;8.57;;;7.75;;
10957;SDS011;5531;42.570;23.676;2023-04-24T15:14:35;9.00;;;8.05;;
10957;SDS011;5531;42.570;23.676;2023-04-24T15:17:04;9.23;;;8.32;;
10957;SDS011;5531;42.570;23.676;2023-04-24T15:19:33;9.00;;;7.82;;